createdAt,value
2022-09-20T00:02:42.154Z,0.40
2022-09-20T00:05:46.783Z,0.40
2022-09-20T00:08:50.256Z,0.65
2022-09-20T00:11:53.144Z,0.85
2022-09-20T00:14:55.711Z,0.52
2022-09-20T00:17:59.143Z,0.85
2022-09-20T00:21:01.933Z,0.60
2022-09-20T00:24:05.968Z,0.40
2022-09-20T00:27:08.574Z,0.73
2022-09-20T00:30:12.786Z,0.62
2022-09-20T00:33:15.446Z,0.60
2022-09-20T00:36:18.227Z,0.62
2022-09-20T00:39:20.874Z,0.62
2022-09-20T00:42:28.254Z,0.85
2022-09-20T00:45:31.651Z,0.85
2022-09-20T00:48:34.485Z,0.68
2022-09-20T00:51:41.086Z,1.17
2022-09-20T00:54:44.150Z,0.75
2022-09-20T00:57:47.103Z,0.75
2022-09-20T01:00:54.037Z,0.77
2022-09-20T01:03:57.632Z,0.60
2022-09-20T01:07:03.168Z,0.65
2022-09-20T01:10:06.353Z,0.60
2022-09-20T01:13:09.553Z,0.88
2022-09-20T01:16:15.040Z,0.40
2022-09-20T01:19:45.801Z,0.40
2022-09-20T01:23:15.916Z,0.60
2022-09-20T01:26:44.551Z,0.50
2022-09-20T01:33:05.484Z,0.55
2022-09-20T01:36:12.229Z,0.45
2022-09-20T01:39:46.074Z,0.47
2022-09-20T01:43:05.607Z,0.30
2022-09-20T01:46:31.220Z,0.35
2022-09-20T01:49:46.981Z,0.50
2022-09-20T01:53:20.516Z,0.62
2022-09-20T01:57:01.805Z,0.75
2022-09-20T02:00:10.938Z,0.62
2022-09-20T02:03:48.721Z,1.02
2022-09-20T02:07:20.711Z,0.52
2022-09-20T02:10:58.100Z,0.47
2022-09-20T02:14:19.277Z,0.50
2022-09-20T02:17:34.316Z,0.75
2022-09-20T02:20:55.550Z,0.50
2022-09-20T02:24:12.989Z,0.60
2022-09-20T02:27:30.136Z,0.57
2022-09-20T02:31:02.795Z,0.60
2022-09-20T02:34:44.270Z,0.43
2022-09-20T02:37:55.827Z,0.70
2022-09-20T02:41:36.892Z,0.65
2022-09-20T02:44:46.262Z,0.50
2022-09-20T02:47:49.437Z,0.80
2022-09-20T02:51:17.743Z,0.40
2022-09-20T02:54:42.251Z,0.82
2022-09-20T02:58:03.656Z,0.95
2022-09-20T03:01:24.756Z,0.75
2022-09-20T03:04:48.711Z,0.40
2022-09-20T03:08:23.046Z,0.40
2022-09-20T03:11:49.158Z,0.85
2022-09-20T03:15:25.392Z,0.30
2022-09-20T03:18:56.957Z,0.50
2022-09-20T03:22:20.801Z,0.45
2022-09-20T03:25:31.268Z,0.35
2022-09-20T03:29:05.276Z,0.52
2022-09-20T03:32:28.867Z,0.50
2022-09-20T03:35:47.046Z,0.70
2022-09-20T03:39:08.261Z,0.90
2022-09-20T03:42:14.517Z,0.65
2022-09-20T03:45:28.957Z,0.47
2022-09-20T03:48:51.497Z,0.52
2022-09-20T03:51:53.991Z,0.60
2022-09-20T03:55:38.785Z,0.22
2022-09-20T03:59:10.765Z,0.77
2022-09-20T04:02:46.328Z,0.68
2022-09-20T04:06:02.541Z,1.05
2022-09-20T04:09:23.304Z,0.57
2022-09-20T04:12:49.282Z,1.05
2022-09-20T04:16:27.283Z,1.02
2022-09-20T04:19:33.009Z,1.12
2022-09-20T04:22:36.283Z,1.08
2022-09-20T04:25:44.515Z,0.90
2022-09-20T04:28:56.675Z,1.20
2022-09-20T04:32:10.404Z,0.77
2022-09-20T04:36:03.161Z,0.80
2022-09-20T04:39:18.092Z,0.43
2022-09-20T04:42:52.203Z,1.12
2022-09-20T04:46:17.748Z,0.70
2022-09-20T04:49:33.768Z,1.00
2022-09-20T04:52:51.742Z,0.88
2022-09-20T04:56:11.808Z,1.08
2022-09-20T04:59:40.602Z,1.30
2022-09-20T05:06:05.235Z,1.15
2022-09-20T05:09:29.151Z,0.95
2022-09-20T05:13:01.067Z,1.48
2022-09-20T05:16:34.562Z,1.15
2022-09-20T05:19:55.804Z,1.35
2022-09-20T05:23:27.627Z,1.37
2022-09-20T05:26:39.059Z,0.93
2022-09-20T05:30:04.906Z,0.82
2022-09-20T05:33:20.616Z,1.12
2022-09-20T05:37:00.547Z,1.10
2022-09-20T05:40:13.123Z,0.93
2022-09-20T05:43:32.516Z,1.02
2022-09-20T05:46:57.629Z,1.40
2022-09-20T05:50:18.126Z,1.50
2022-09-20T05:53:36.158Z,0.75
2022-09-20T05:57:00.027Z,1.65
2022-09-20T06:00:17.048Z,1.05
2022-09-20T06:03:31.672Z,1.17
2022-09-20T06:07:13.028Z,0.98
2022-09-20T06:10:35.983Z,0.88
2022-09-20T06:13:41.368Z,0.70
2022-09-20T06:16:59.196Z,0.73
2022-09-20T06:20:32.900Z,1.23
2022-09-20T06:23:36.892Z,3.62
2022-09-20T06:26:41.529Z,1.00
2022-09-20T06:29:52.335Z,1.30
2022-09-20T06:33:00.107Z,0.90
2022-09-20T06:36:27.717Z,1.62
2022-09-20T06:40:17.052Z,1.60
2022-09-20T06:43:19.807Z,1.25
2022-09-20T06:46:22.691Z,1.80
2022-09-20T06:49:27.371Z,1.12
2022-09-20T06:52:30.005Z,1.58
2022-09-20T06:55:42.289Z,1.12
2022-09-20T06:58:44.723Z,1.05
2022-09-20T07:01:47.786Z,1.23
2022-09-20T07:04:57.116Z,1.35
2022-09-20T07:08:01.425Z,1.00
2022-09-20T07:11:10.294Z,1.48
2022-09-20T07:14:13.139Z,1.27
2022-09-20T07:17:15.668Z,1.12
2022-09-20T07:20:21.497Z,1.20
2022-09-20T07:23:27.842Z,1.48
2022-09-20T07:26:31.823Z,1.27
2022-09-20T07:29:35.279Z,1.27
2022-09-20T07:32:38.637Z,1.50
2022-09-20T07:35:41.639Z,1.30
2022-09-20T07:38:48.594Z,1.55
2022-09-20T07:41:51.280Z,1.65
2022-09-20T07:44:55.738Z,1.40
2022-09-20T07:47:59.376Z,1.50
2022-09-20T07:51:11.155Z,1.30
2022-09-20T07:54:13.869Z,1.67
2022-09-20T07:57:17.116Z,1.73
2022-09-20T08:00:19.995Z,1.30
2022-09-20T08:03:23.618Z,2.08
2022-09-20T08:06:26.826Z,1.67
2022-09-20T08:09:29.620Z,1.80
2022-09-20T08:16:05.017Z,1.52
2022-09-20T08:19:08.032Z,1.30
2022-09-20T08:22:12.579Z,1.40
2022-09-20T08:25:18.917Z,1.90
2022-09-20T08:28:21.788Z,1.45
2022-09-20T08:31:27.466Z,2.08
2022-09-20T08:34:30.933Z,1.92
2022-09-20T08:37:33.543Z,2.05
2022-09-20T08:40:36.795Z,1.95
2022-09-20T08:43:55.941Z,1.75
2022-09-20T08:47:13.580Z,1.80
2022-09-20T08:50:18.073Z,1.77
2022-09-20T08:53:21.615Z,1.55
2022-09-20T08:56:36.355Z,1.35
2022-09-20T08:59:39.848Z,1.67
2022-09-20T09:02:42.560Z,1.50
2022-09-20T09:05:52.107Z,1.42
2022-09-20T09:08:59.581Z,1.50
2022-09-20T09:12:03.135Z,1.40
2022-09-20T09:15:40.199Z,1.33
2022-09-20T09:18:46.528Z,1.55
2022-09-20T09:21:49.033Z,1.40
2022-09-20T09:25:10.281Z,1.27
2022-09-20T09:28:15.263Z,1.73
2022-09-20T09:31:25.908Z,1.45
2022-09-20T09:34:38.777Z,1.50
2022-09-20T09:37:54.210Z,1.20
2022-09-20T09:41:02.039Z,1.40
2022-09-20T09:44:20.787Z,1.12
2022-09-20T09:47:28.566Z,1.30
2022-09-20T09:50:34.734Z,1.30
2022-09-20T09:53:39.105Z,1.40
2022-09-20T09:57:07.080Z,1.58
2022-09-20T10:00:39.720Z,1.25
2022-09-20T10:04:12.085Z,1.48
2022-09-20T10:07:24.380Z,1.40
2022-09-20T10:10:43.480Z,1.05
2022-09-20T10:14:10.858Z,1.17
2022-09-20T10:17:23.051Z,1.17
2022-09-20T10:20:50.176Z,1.17
2022-09-20T10:24:19.875Z,1.00
2022-09-20T10:27:38.323Z,1.30
2022-09-20T10:31:02.907Z,1.05
2022-09-20T10:34:20.396Z,1.40
2022-09-20T10:37:39.377Z,1.30
2022-09-20T10:41:26.417Z,1.23
2022-09-20T10:44:46.381Z,1.12
2022-09-20T10:47:55.733Z,1.27
2022-09-20T10:51:06.722Z,1.33
2022-09-20T10:54:22.307Z,1.25
2022-09-20T10:57:52.861Z,1.40
2022-09-20T11:01:20.141Z,1.02
2022-09-20T11:05:06.755Z,1.12
2022-09-20T11:08:22.722Z,1.30
2022-09-20T11:11:47.888Z,1.42
2022-09-20T11:15:17.279Z,1.50
2022-09-20T11:18:29.387Z,1.23
2022-09-20T11:21:38.494Z,1.00
2022-09-20T11:25:11.423Z,1.37
2022-09-20T11:28:37.459Z,1.35
2022-09-20T11:31:46.302Z,1.55
2022-09-20T11:35:01.966Z,1.42
2022-09-20T11:38:04.769Z,1.55
2022-09-20T11:41:16.634Z,1.33
2022-09-20T11:44:20.008Z,1.30
2022-09-20T11:47:55.734Z,1.33
2022-09-20T11:51:31.460Z,1.02
2022-09-20T11:54:54.795Z,0.90
2022-09-20T11:58:10.119Z,0.95
2022-09-20T12:01:14.297Z,0.82
2022-09-20T12:04:39.037Z,1.10
2022-09-20T12:07:44.437Z,1.10
2022-09-20T12:10:57.253Z,1.05
2022-09-20T12:14:20.349Z,0.85
2022-09-20T12:17:48.037Z,0.90
2022-09-20T12:20:51.053Z,0.90
2022-09-20T12:23:56.835Z,0.57
2022-09-20T12:27:01.772Z,0.80
2022-09-20T12:30:18.037Z,0.80
2022-09-20T12:33:22.097Z,0.80
2022-09-20T12:36:27.036Z,0.88
2022-09-20T12:39:33.182Z,0.82
2022-09-20T12:42:36.020Z,0.93
2022-09-20T12:45:38.718Z,1.02
2022-09-20T12:48:41.869Z,0.73
2022-09-20T12:52:10.024Z,0.80
2022-09-20T12:55:26.737Z,0.95
2022-09-20T12:58:39.799Z,1.00
2022-09-20T13:01:43.619Z,0.93
2022-09-20T13:04:55.880Z,0.90
2022-09-20T13:08:23.736Z,0.80
2022-09-20T13:11:35.524Z,1.10
2022-09-20T13:14:40.560Z,1.05
2022-09-20T13:17:44.800Z,1.00
2022-09-20T13:20:48.212Z,1.10
2022-09-20T13:23:54.192Z,0.95
2022-09-20T13:27:06.384Z,1.10
2022-09-20T13:30:22.400Z,0.93
2022-09-20T13:33:25.714Z,1.27
2022-09-20T13:36:31.667Z,1.08
2022-09-20T13:39:37.333Z,1.35
2022-09-20T13:42:39.991Z,1.25
2022-09-20T13:45:43.906Z,1.10
2022-09-20T13:48:47.920Z,1.23
2022-09-20T13:51:52.016Z,0.80
2022-09-20T13:54:55.723Z,0.93
2022-09-20T13:58:23.368Z,1.23
2022-09-20T14:01:31.397Z,1.15
2022-09-20T14:07:36.840Z,1.05
2022-09-20T14:10:43.737Z,1.10
2022-09-20T14:13:49.795Z,0.90
2022-09-20T14:16:55.236Z,0.90
2022-09-20T14:19:58.471Z,1.00
2022-09-20T14:23:01.592Z,0.50
2022-09-20T14:26:07.889Z,0.50
2022-09-20T14:29:31.643Z,0.80
2022-09-20T14:32:39.124Z,0.50
2022-09-20T14:35:51.257Z,0.77
2022-09-20T14:38:58.071Z,0.57
2022-09-20T14:42:01.026Z,0.60
2022-09-20T14:45:05.285Z,0.90
2022-09-20T14:48:11.748Z,1.00
2022-09-20T14:51:25.165Z,0.52
2022-09-20T14:54:30.503Z,0.73
2022-09-20T14:57:32.999Z,0.90
2022-09-20T15:00:53.932Z,1.00
2022-09-20T15:03:57.680Z,0.70
2022-09-20T15:07:02.845Z,0.60
2022-09-20T15:10:12.119Z,0.70
2022-09-20T15:13:15.485Z,0.85
2022-09-20T15:16:20.469Z,1.12
2022-09-20T15:19:23.347Z,1.00
2022-09-20T15:22:27.459Z,1.00
2022-09-20T15:25:30.306Z,1.12
2022-09-20T15:28:36.226Z,0.75
2022-09-20T15:31:39.016Z,0.82
2022-09-20T15:34:41.611Z,0.93
2022-09-20T15:37:44.506Z,0.75
2022-09-20T15:40:49.165Z,0.90
2022-09-20T15:43:52.049Z,0.90
2022-09-20T15:46:55.207Z,0.88
2022-09-20T15:49:59.205Z,0.68
2022-09-20T15:53:01.831Z,0.70
2022-09-20T15:56:15.494Z,0.70
2022-09-20T15:59:21.600Z,1.17
2022-09-20T16:02:26.608Z,1.08
2022-09-20T16:05:29.457Z,1.08
2022-09-20T16:08:36.233Z,0.95
2022-09-20T16:11:40.726Z,1.55
2022-09-20T16:14:43.289Z,1.08
2022-09-20T16:18:04.888Z,0.80
2022-09-20T16:21:12.626Z,1.00
2022-09-20T16:24:17.198Z,0.85
2022-09-20T16:27:19.790Z,0.70
2022-09-20T16:30:23.108Z,0.60
2022-09-20T16:33:26.557Z,0.85
2022-09-20T16:36:30.687Z,0.85
2022-09-20T16:39:33.389Z,0.93
2022-09-20T16:42:37.928Z,1.02
2022-09-20T16:45:40.498Z,0.95
2022-09-20T16:48:43.724Z,0.80
2022-09-20T16:51:47.025Z,1.17
2022-09-20T16:54:49.853Z,0.90
2022-09-20T16:57:55.802Z,1.30
2022-09-20T17:01:06.347Z,0.93
2022-09-20T17:04:10.467Z,1.23
2022-09-20T17:07:13.465Z,1.50
2022-09-20T17:10:16.279Z,1.27
2022-09-20T17:13:19.148Z,1.67
2022-09-20T17:16:27.745Z,1.05
2022-09-20T17:19:30.540Z,1.02
2022-09-20T17:22:33.634Z,1.70
2022-09-20T17:25:36.910Z,1.52
2022-09-20T17:28:44.220Z,1.42
2022-09-20T17:31:54.974Z,0.97
2022-09-20T17:35:00.179Z,1.37
2022-09-20T17:38:02.976Z,0.82
2022-09-20T17:41:12.615Z,1.42
2022-09-20T17:44:16.042Z,1.05
2022-09-20T17:47:19.929Z,0.93
2022-09-20T17:50:22.755Z,0.90
2022-09-20T17:53:25.273Z,1.10
2022-09-20T17:56:29.419Z,1.10
2022-09-20T17:59:32.406Z,1.45
2022-09-20T18:02:35.255Z,1.17
2022-09-20T18:05:38.167Z,1.55
2022-09-20T18:08:41.683Z,1.25
2022-09-20T18:11:48.778Z,1.83
2022-09-20T18:14:51.327Z,1.80
2022-09-20T18:17:54.657Z,1.60
2022-09-20T18:20:57.368Z,1.83
2022-09-20T18:24:01.014Z,1.45
2022-09-20T18:27:04.558Z,1.80
2022-09-20T18:30:08.040Z,1.25
2022-09-20T18:33:10.898Z,1.58
2022-09-20T18:36:15.524Z,1.60
2022-09-20T18:39:23.483Z,1.55
2022-09-20T18:42:26.400Z,2.05
2022-09-20T18:45:28.941Z,1.33
2022-09-20T18:48:34.926Z,1.73
2022-09-20T18:51:40.179Z,1.40
2022-09-20T18:54:43.256Z,1.77
2022-09-20T18:57:46.000Z,1.12
2022-09-20T19:00:59.650Z,1.48
2022-09-20T19:04:11.177Z,0.95
2022-09-20T19:07:54.044Z,1.40
2022-09-20T19:11:04.130Z,1.00
2022-09-20T19:14:17.062Z,1.42
2022-09-20T19:17:26.375Z,1.05
2022-09-20T19:21:00.131Z,0.85
2022-09-20T19:24:39.603Z,1.27
2022-09-20T19:27:42.750Z,1.40
2022-09-20T19:30:48.165Z,1.90
2022-09-20T19:33:55.827Z,1.27
2022-09-20T19:37:18.659Z,1.20
2022-09-20T19:40:32.910Z,1.15
2022-09-20T19:43:47.553Z,1.00
2022-09-20T19:46:53.159Z,1.37
2022-09-20T19:50:17.093Z,1.33
2022-09-20T19:53:23.225Z,1.08
2022-09-20T19:56:33.446Z,0.95
2022-09-20T19:59:36.544Z,1.23
2022-09-20T20:02:39.320Z,1.12
2022-09-20T20:05:50.932Z,1.77
2022-09-20T20:09:03.327Z,1.48
2022-09-20T20:12:14.818Z,1.12
2022-09-20T20:15:36.011Z,1.75
2022-09-20T20:19:16.654Z,1.15
2022-09-20T20:22:40.951Z,0.88
2022-09-20T20:25:59.950Z,1.83
2022-09-20T20:29:02.499Z,1.05
2022-09-20T20:32:05.300Z,1.25
2022-09-20T20:35:08.199Z,1.35
2022-09-20T20:38:11.757Z,1.37
2022-09-20T20:41:17.143Z,1.58
2022-09-20T20:44:20.889Z,2.28
2022-09-20T20:47:23.342Z,1.83
2022-09-20T20:50:27.968Z,1.20
2022-09-20T20:53:36.029Z,1.27
2022-09-20T20:56:38.906Z,1.65
2022-09-20T20:59:41.417Z,1.17
2022-09-20T21:02:45.018Z,0.90
2022-09-20T21:05:53.895Z,1.10
2022-09-20T21:08:56.888Z,1.83
2022-09-20T21:11:59.553Z,1.20
2022-09-20T21:15:02.268Z,1.30
2022-09-20T21:18:05.591Z,1.77
2022-09-20T21:21:29.913Z,1.00
2022-09-20T21:24:32.451Z,1.25
2022-09-20T21:27:38.425Z,1.58
2022-09-20T21:30:40.981Z,1.37
2022-09-20T21:33:44.095Z,1.42
2022-09-20T21:36:46.579Z,1.08
2022-09-20T21:39:49.382Z,1.08
2022-09-20T21:42:52.445Z,1.40
2022-09-20T21:45:57.029Z,1.23
2022-09-20T21:49:05.463Z,2.03
2022-09-20T21:52:08.200Z,1.62
2022-09-20T21:55:10.795Z,1.35
2022-09-20T21:58:13.743Z,1.30
2022-09-20T22:01:21.333Z,1.10
2022-09-20T22:04:24.213Z,1.67
2022-09-20T22:07:26.717Z,1.30
2022-09-20T22:10:29.544Z,2.12
2022-09-20T22:13:32.071Z,1.35
2022-09-20T22:16:37.906Z,2.90
2022-09-20T22:19:40.513Z,2.08
2022-09-20T22:22:43.281Z,1.77
2022-09-20T22:25:45.868Z,1.37
2022-09-20T22:28:52.079Z,2.00
2022-09-20T22:31:55.017Z,1.42
2022-09-20T22:34:59.409Z,1.98
2022-09-20T22:38:02.183Z,1.87
2022-09-20T22:41:05.158Z,1.75
2022-09-20T22:44:07.883Z,1.25
2022-09-20T22:47:10.781Z,1.85
2022-09-20T22:50:13.790Z,1.50
2022-09-20T22:53:16.664Z,2.00
2022-09-20T22:56:21.882Z,2.15
2022-09-20T22:59:24.669Z,1.70
2022-09-20T23:02:27.156Z,1.60
2022-09-20T23:05:29.963Z,1.55
2022-09-20T23:08:33.263Z,1.37
2022-09-20T23:11:37.082Z,1.60
2022-09-20T23:14:39.473Z,1.62
2022-09-20T23:17:42.279Z,1.33
2022-09-20T23:20:44.769Z,1.55
2022-09-20T23:23:52.060Z,1.27
2022-09-20T23:26:54.487Z,2.65
2022-09-20T23:29:57.244Z,1.90
2022-09-20T23:32:59.742Z,1.85
2022-09-20T23:36:07.235Z,1.67
2022-09-20T23:39:11.760Z,1.55
2022-09-20T23:42:14.497Z,1.92
2022-09-20T23:45:17.016Z,1.75
2022-09-20T23:48:19.742Z,1.75
2022-09-20T23:51:24.802Z,1.98
2022-09-20T23:54:27.720Z,1.42
2022-09-20T23:57:30.344Z,1.85
